Time;durP1;ratioP1;P1;durP2;ratioP2;P2;SDS_P1;SDS_P2;PMS_P1;PMS_P2;Temp;Humidity;BMP_temperature;BMP_pressure;BME280_temperature;BME280_humidity;BME280_pressure;Samples;Min_cycle;Max_cycle;Signal;HPM_P1;HPM_P2
2022/11/10 00:00:35;;;;;;;32.37;30.37;;;10.00;99.90;;;;;;4899046;29;20466;-85
2022/11/10 00:03:03;;;;;;;41.67;39.77;;;10.10;99.90;;;;;;4899269;29;20477;-85
2022/11/10 00:05:29;;;;;;;46.40;43.77;;;10.00;99.90;;;;;;4902597;29;20459;-85
2022/11/10 00:07:57;;;;;;;61.73;58.57;;;10.00;99.90;;;;;;4903001;29;20481;-85
2022/11/10 00:10:24;;;;;;;59.50;57.10;;;9.90;99.90;;;;;;4902682;29;20465;-84
2022/11/10 00:12:52;;;;;;;69.17;65.97;;;10.00;99.90;;;;;;4902458;29;20458;-84
2022/11/10 00:18:04;;;;;;;79.50;75.87;;;10.00;99.90;;;;;;4902337;29;20541;-85
2022/11/10 00:20:31;;;;;;;80.10;76.67;;;10.00;99.90;;;;;;4902059;29;20956;-85
2022/11/10 00:22:58;;;;;;;59.90;57.17;;;10.00;99.90;;;;;;4902298;29;21130;-85
2022/11/10 00:25:26;;;;;;;65.27;61.97;;;10.10;99.90;;;;;;4902124;29;20463;-85
2022/11/10 00:27:54;;;;;;;62.50;59.80;;;10.00;99.90;;;;;;4902408;29;20474;-85
2022/11/10 00:30:21;;;;;;;75.07;71.67;;;9.90;99.90;;;;;;4901866;29;20460;-85
2022/11/10 00:32:48;;;;;;;79.23;75.17;;;9.90;99.90;;;;;;4902011;29;20455;-84
2022/11/10 00:35:15;;;;;;;88.43;83.97;;;10.00;99.90;;;;;;4901620;29;20469;-85
2022/11/10 00:37:42;;;;;;;106.20;101.07;;;9.80;99.90;;;;;;4901462;29;20500;-84
2022/11/10 00:40:09;;;;;;;110.73;106.00;;;9.80;99.90;;;;;;4901975;29;20474;-83
2022/11/10 00:42:36;;;;;;;131.83;126.60;;;9.90;99.90;;;;;;4902056;29;20462;-85
2022/11/10 00:45:06;;;;;;;120.17;115.27;;;9.80;99.90;;;;;;4901271;29;20462;-85
2022/11/10 00:47:33;;;;;;;125.23;119.70;;;9.70;99.90;;;;;;4901074;29;20478;-85
2022/11/10 00:49:59;;;;;;;137.80;132.97;;;9.80;99.90;;;;;;4901446;29;20458;-85
2022/11/10 00:52:26;;;;;;;156.50;150.70;;;9.70;99.90;;;;;;4901241;29;20462;-86
2022/11/10 00:54:53;;;;;;;160.87;154.93;;;9.70;99.90;;;;;;4901974;29;20485;-85
2022/11/10 00:57:20;;;;;;;178.03;171.87;;;9.70;99.90;;;;;;4900978;29;20486;-85
2022/11/10 00:59:46;;;;;;;163.50;157.80;;;9.70;99.90;;;;;;4901363;29;20466;-85
2022/11/10 01:02:14;;;;;;;184.13;176.60;;;9.60;99.90;;;;;;4901180;29;20840;-85
2022/11/10 01:04:41;;;;;;;208.13;200.10;;;9.60;99.90;;;;;;4901544;29;20807;-85
2022/11/10 01:07:08;;;;;;;224.53;215.27;;;9.50;99.90;;;;;;4900236;29;20466;-85
2022/11/10 01:09:35;;;;;;;218.20;210.00;;;9.60;99.90;;;;;;4900834;29;20458;-85
2022/11/10 01:12:01;;;;;;;265.53;255.93;;;9.40;99.90;;;;;;4901061;29;20469;-85
2022/11/10 01:14:28;;;;;;;268.73;257.57;;;9.50;99.90;;;;;;4900624;29;20463;-85
2022/11/10 01:16:55;;;;;;;294.63;283.63;;;9.40;99.90;;;;;;4900526;29;20522;-85
2022/11/10 01:19:23;;;;;;;319.23;307.47;;;9.40;99.90;;;;;;4900802;29;20486;-85
2022/11/10 01:21:51;;;;;;;298.07;286.87;;;9.40;99.90;;;;;;4900846;29;20466;-85
2022/11/10 01:24:21;;;;;;;296.23;284.77;;;9.40;99.90;;;;;;4900733;29;20462;-84
2022/11/10 01:26:48;;;;;;;310.60;296.90;;;9.50;99.90;;;;;;4900923;29;20465;-84
2022/11/10 01:29:15;;;;;;;308.93;297.53;;;9.50;99.90;;;;;;4900875;29;20470;-85
2022/11/10 01:31:43;;;;;;;279.77;268.67;;;9.50;99.90;;;;;;4900588;29;20459;-85
2022/11/10 01:34:10;;;;;;;284.10;272.33;;;9.50;99.90;;;;;;4899845;29;20518;-85
2022/11/10 01:36:38;;;;;;;289.87;278.67;;;9.60;99.90;;;;;;4900612;29;20465;-84
2022/11/10 01:39:04;;;;;;;239.87;230.40;;;9.60;99.90;;;;;;4900655;29;21009;-85
2022/11/10 01:41:31;;;;;;;237.03;228.03;;;9.70;99.90;;;;;;4900252;29;20990;-85
2022/11/10 01:44:16;;;;;;;229.73;220.73;;;9.70;99.90;;;;;;4900672;29;20463;-84
2022/11/10 01:46:42;;;;;;;240.90;232.23;;;9.60;99.90;;;;;;4900617;29;20839;-85
2022/11/10 01:49:10;;;;;;;243.03;234.47;;;9.50;99.90;;;;;;4900325;29;20482;-85
2022/11/10 01:51:44;;;;;;;260.17;250.37;;;9.50;99.90;;;;;;4900582;29;20492;-85
2022/11/10 01:54:15;;;;;;;283.17;272.90;;;9.50;99.90;;;;;;4900372;29;20537;-84
2022/11/10 01:56:46;;;;;;;282.17;271.87;;;9.40;99.90;;;;;;4900398;29;20471;-84
2022/11/10 01:59:18;;;;;;;293.57;282.67;;;9.50;99.90;;;;;;4900205;29;20486;-85
2022/11/10 02:01:48;;;;;;;315.33;303.70;;;9.50;99.90;;;;;;4899844;29;20466;-85
2022/11/10 02:04:17;;;;;;;311.13;299.53;;;9.50;99.90;;;;;;4899963;29;20470;-84
2022/11/10 02:06:47;;;;;;;314.77;302.87;;;9.50;99.90;;;;;;4900379;29;20840;-85
2022/11/10 02:09:14;;;;;;;299.03;287.40;;;9.60;99.90;;;;;;4900102;29;20529;-84
2022/11/10 02:11:42;;;;;;;285.47;274.17;;;9.60;99.90;;;;;;4899837;29;20459;-84
2022/11/10 02:14:10;;;;;;;284.83;273.97;;;9.50;99.90;;;;;;4900104;29;20462;-84
2022/11/10 02:16:37;;;;;;;292.27;281.37;;;9.50;99.90;;;;;;4899498;29;20981;-84
2022/11/10 02:19:24;;;;;;;291.57;280.37;;;9.40;99.90;;;;;;4900071;29;20490;-84
2022/11/10 02:21:52;;;;;;;270.17;259.77;;;9.50;99.90;;;;;;4899512;29;20545;-85
2022/11/10 02:24:19;;;;;;;279.80;269.40;;;9.50;99.90;;;;;;4899506;29;20458;-84
2022/11/10 02:26:50;;;;;;;286.23;275.47;;;9.50;99.90;;;;;;4898517;29;21002;-85
2022/11/10 02:29:17;;;;;;;283.80;273.30;;;9.40;99.90;;;;;;4899638;29;20827;-84
2022/11/10 02:31:44;;;;;;;283.97;272.70;;;9.50;99.90;;;;;;4899475;29;20550;-85
2022/11/10 02:34:11;;;;;;;295.30;284.10;;;9.50;99.90;;;;;;4899942;29;20454;-85
2022/11/10 02:36:37;;;;;;;278.87;268.50;;;9.50;99.90;;;;;;4899017;29;20455;-85
2022/11/10 02:39:05;;;;;;;283.83;273.20;;;9.50;99.90;;;;;;4898936;29;20486;-84
2022/11/10 02:41:32;;;;;;;295.60;284.30;;;9.40;99.90;;;;;;4899024;29;20470;-84
2022/11/10 02:43:59;;;;;;;313.47;300.77;;;9.30;99.90;;;;;;4899306;29;20483;-85
2022/11/10 02:46:26;;;;;;;339.13;325.17;;;9.30;99.90;;;;;;4899105;29;20848;-83
2022/11/10 02:48:53;;;;;;;343.60;329.10;;;9.40;99.90;;;;;;4899495;29;20480;-84
2022/11/10 02:51:20;;;;;;;344.70;330.87;;;9.30;99.90;;;;;;4899142;29;20465;-84
2022/11/10 02:53:47;;;;;;;360.03;345.83;;;9.30;99.90;;;;;;4899339;29;20469;-84
2022/11/10 02:56:15;;;;;;;391.23;375.70;;;9.30;99.90;;;;;;4899366;29;20839;-84
2022/11/10 02:58:41;;;;;;;391.40;375.40;;;9.20;99.90;;;;;;4899183;29;20490;-84
2022/11/10 03:01:08;;;;;;;405.20;389.00;;;9.30;99.90;;;;;;4898926;29;20462;-85
2022/11/10 03:03:35;;;;;;;378.80;363.03;;;9.40;99.90;;;;;;4899072;29;20455;-84
2022/11/10 03:06:02;;;;;;;335.77;322.67;;;9.50;99.90;;;;;;4898883;29;20526;-84
2022/11/10 03:08:29;;;;;;;323.27;309.07;;;9.50;99.90;;;;;;4899367;29;20483;-85
2022/11/10 03:10:56;;;;;;;334.60;320.67;;;9.40;99.90;;;;;;4899043;29;20458;-84
2022/11/10 03:13:26;;;;;;;336.43;323.57;;;9.40;99.90;;;;;;4899009;29;20463;-84
2022/11/10 03:15:53;;;;;;;346.27;332.77;;;9.40;99.90;;;;;;4898399;29;20464;-84
2022/11/10 03:18:20;;;;;;;348.00;334.20;;;9.40;99.90;;;;;;4898897;29;21017;-85
2022/11/10 03:20:49;;;;;;;373.90;359.10;;;9.30;99.90;;;;;;4899028;29;20465;-85
2022/11/10 03:23:16;;;;;;;381.60;366.20;;;9.30;99.90;;;;;;4899423;29;20526;-84
2022/11/10 03:25:43;;;;;;;404.77;388.10;;;9.20;99.90;;;;;;4898789;29;20462;-85
2022/11/10 03:28:10;;;;;;;401.50;385.87;;;9.30;99.90;;;;;;4898536;29;20478;-86
2022/11/10 03:30:39;;;;;;;431.20;414.20;;;9.20;99.90;;;;;;4898498;29;20472;-85
2022/11/10 03:33:06;;;;;;;425.47;408.03;;;9.20;99.90;;;;;;4899182;29;20458;-84
2022/11/10 03:35:33;;;;;;;446.83;428.20;;;9.20;99.90;;;;;;4899211;29;20892;-85
2022/11/10 03:38:00;;;;;;;425.40;407.37;;;9.30;99.90;;;;;;4899846;29;21012;-85
2022/11/10 03:40:27;;;;;;;391.03;375.40;;;9.40;99.90;;;;;;4902247;29;20474;-85
2022/11/10 03:42:54;;;;;;;356.00;341.70;;;9.40;99.90;;;;;;4902589;29;20562;-85
2022/11/10 03:45:21;;;;;;;342.07;328.73;;;9.40;99.90;;;;;;4902864;29;20462;-85
2022/11/10 03:47:49;;;;;;;332.33;318.53;;;9.40;99.90;;;;;;4902358;29;20486;-85
2022/11/10 03:50:17;;;;;;;320.90;307.70;;;9.50;99.90;;;;;;4902316;29;20476;-83
2022/11/10 03:52:46;;;;;;;325.63;311.77;;;9.50;99.90;;;;;;4902672;29;20469;-85
2022/11/10 03:55:15;;;;;;;310.20;297.83;;;9.50;99.90;;;;;;4902274;29;20462;-84
2022/11/10 03:57:42;;;;;;;291.37;279.87;;;9.40;99.90;;;;;;4902117;29;20484;-84
2022/11/10 04:00:11;;;;;;;303.70;290.90;;;9.40;99.90;;;;;;4902453;29;20569;-86
2022/11/10 04:02:39;;;;;;;320.93;307.97;;;9.40;99.90;;;;;;4902165;29;20458;-85
2022/11/10 04:10:42;;;;;;;347.67;333.97;;;9.30;99.90;;;;;;4902065;29;20485;-85
2022/11/10 04:16:04;;;;;;;368.17;352.17;;;9.40;99.90;;;;;;4861747;29;20508;-85
2022/11/10 04:18:31;;;;;;;370.43;355.30;;;9.30;99.90;;;;;;4891726;29;20490;-85
2022/11/10 04:21:01;;;;;;;372.27;356.97;;;9.30;99.90;;;;;;4901853;29;20458;-85
2022/11/10 04:23:33;;;;;;;373.83;358.37;;;9.30;99.90;;;;;;4902080;29;20466;-85
2022/11/10 04:28:47;;;;;;;395.13;379.23;;;9.30;99.90;;;;;;4901961;29;20470;-85
2022/11/10 04:31:15;;;;;;;445.90;427.30;;;9.20;99.90;;;;;;4901771;29;20454;-85
2022/11/10 04:33:42;;;;;;;459.97;439.70;;;9.20;99.90;;;;;;4901400;29;21104;-84
2022/11/10 04:36:13;;;;;;;446.17;427.67;;;9.30;99.90;;;;;;4901493;29;20474;-84
2022/11/10 04:38:40;;;;;;;436.27;418.37;;;9.20;99.90;;;;;;4901049;29;20497;-84
2022/11/10 04:41:08;;;;;;;443.57;425.40;;;9.30;99.90;;;;;;4901235;29;20478;-85
2022/11/10 04:43:35;;;;;;;458.60;439.07;;;9.30;99.90;;;;;;4901859;29;20467;-86
2022/11/10 04:46:02;;;;;;;477.33;456.40;;;9.20;99.90;;;;;;4901192;29;20465;-85
2022/11/10 04:48:31;;;;;;;474.40;453.13;;;9.20;99.90;;;;;;4901051;29;20848;-85
2022/11/10 04:51:03;;;;;;;478.20;457.60;;;9.20;99.90;;;;;;4900426;29;20468;-85
2022/11/10 04:53:33;;;;;;;475.43;455.23;;;9.30;99.90;;;;;;4901434;29;20518;-86
2022/11/10 04:56:00;;;;;;;469.10;448.47;;;9.20;99.90;;;;;;4901321;29;20466;-85
2022/11/10 04:58:27;;;;;;;475.77;455.57;;;9.20;99.90;;;;;;4900737;29;20521;-85
2022/11/10 05:00:53;;;;;;;490.00;468.83;;;9.30;99.90;;;;;;4900805;29;20459;-84
2022/11/10 05:03:20;;;;;;;477.50;456.30;;;9.20;99.90;;;;;;4901150;29;20458;-84
2022/11/10 05:05:48;;;;;;;478.20;457.43;;;9.20;99.90;;;;;;4900982;29;20466;-85
2022/11/10 05:08:15;;;;;;;470.00;449.90;;;9.20;99.90;;;;;;4901131;29;20490;-85
2022/11/10 05:10:43;;;;;;;443.60;424.17;;;9.20;99.90;;;;;;4901052;29;20550;-85
2022/11/10 05:13:10;;;;;;;454.17;434.17;;;9.20;99.90;;;;;;4900561;29;20469;-85
2022/11/10 05:15:40;;;;;;;447.47;428.50;;;9.30;99.90;;;;;;4900435;29;20466;-84
2022/11/10 05:18:06;;;;;;;470.20;449.27;;;9.10;99.90;;;;;;4899458;29;20509;-86
2022/11/10 05:20:33;;;;;;;493.57;471.67;;;9.10;99.90;;;;;;4899174;29;20988;-83
2022/11/10 05:25:46;;;;;;;500.53;478.77;;;9.20;99.90;;;;;;4898931;29;20446;-83
2022/11/10 05:28:13;;;;;;;485.20;462.67;;;9.20;99.90;;;;;;4898772;29;20489;-83
2022/11/10 05:30:40;;;;;;;519.47;495.60;;;9.10;99.90;;;;;;4898723;29;20463;-85
2022/11/10 05:33:07;;;;;;;536.53;511.93;;;9.10;99.90;;;;;;4899613;29;20454;-83
2022/11/10 05:35:34;;;;;;;577.80;549.53;;;9.00;99.90;;;;;;4899861;29;20470;-83
2022/11/10 05:38:01;;;;;;;580.17;553.07;;;9.00;99.90;;;;;;4898473;29;20479;-83
2022/11/10 05:40:28;;;;;;;567.93;541.13;;;9.00;99.90;;;;;;4898162;29;20486;-83
2022/11/10 05:42:56;;;;;;;568.50;539.90;;;9.00;99.90;;;;;;4899359;29;20829;-84
2022/11/10 05:45:25;;;;;;;566.50;539.33;;;9.00;99.90;;;;;;4900331;29;20477;-85
2022/11/10 05:47:52;;;;;;;592.93;562.87;;;8.90;99.90;;;;;;4900465;29;20478;-85
2022/11/10 05:50:20;;;;;;;628.40;597.57;;;8.80;99.90;;;;;;4899852;29;20450;-85
2022/11/10 05:56:24;;;;;;;662.30;627.17;;;8.90;99.90;;;;;;4830580;29;20562;-84
2022/11/10 05:58:52;;;;;;;666.80;631.10;;;8.90;99.90;;;;;;4879249;29;20521;-85
2022/11/10 06:01:19;;;;;;;659.87;624.07;;;8.80;99.90;;;;;;4895087;29;20454;-83
2022/11/10 06:03:49;;;;;;;693.50;655.13;;;8.70;99.90;;;;;;4900405;29;20466;-84
2022/11/10 06:08:59;;;;;;;677.40;639.40;;;8.70;99.90;;;;;;4894566;29;20478;-84
2022/11/10 06:14:35;;;;;;;683.23;641.00;;;8.90;99.90;;;;;;4899908;29;20463;-84
2022/11/10 06:17:18;;;;;;;664.57;626.77;;;8.90;99.90;;;;;;4900139;29;20463;-84
2022/11/10 06:23:50;;;;;;;;;;;;;;;;;;;;;
2022/11/10 06:29:20;;;;;;;563.50;535.40;;;9.00;99.90;;;;;;4948199;23;20485;-84
2022/11/10 06:32:19;;;;;;;555.80;529.00;;;9.00;99.90;;;;;;4918109;29;20457;-84
2022/11/10 06:34:46;;;;;;;537.97;512.00;;;9.00;99.90;;;;;;4918557;29;20450;-84
2022/11/10 06:37:18;;;;;;;551.93;525.00;;;9.00;99.90;;;;;;4918991;29;20478;-84
2022/11/10 06:40:09;;;;;;;541.70;515.17;;;9.00;99.90;;;;;;4918441;29;20489;-84
2022/11/10 06:42:36;;;;;;;589.03;558.67;;;8.90;99.90;;;;;;4918542;29;20547;-84
2022/11/10 06:45:03;;;;;;;587.77;558.67;;;8.90;99.90;;;;;;4918351;29;20465;-84
2022/11/10 06:47:32;;;;;;;576.67;547.20;;;8.90;99.90;;;;;;4918191;29;20477;-85
2022/11/10 06:49:58;;;;;;;586.30;556.40;;;8.90;99.90;;;;;;4918728;29;20457;-84
2022/11/10 06:52:25;;;;;;;582.47;552.40;;;8.90;99.90;;;;;;4918484;29;20464;-84
2022/11/10 06:54:52;;;;;;;567.77;538.87;;;8.90;99.90;;;;;;4918251;29;20457;-84
2022/11/10 06:57:19;;;;;;;565.50;536.40;;;8.90;99.90;;;;;;4918102;29;20477;-84
2022/11/10 06:59:46;;;;;;;563.67;535.70;;;8.90;99.90;;;;;;4918391;29;20553;-84
2022/11/10 07:02:15;;;;;;;548.10;520.63;;;9.10;99.90;;;;;;4918402;29;20457;-83
2022/11/10 07:04:44;;;;;;;499.20;474.77;;;9.10;99.90;;;;;;4918435;29;20540;-85
2022/11/10 07:07:12;;;;;;;474.10;451.53;;;9.10;99.90;;;;;;4919208;29;20461;-83
2022/11/10 07:09:46;;;;;;;466.40;444.20;;;9.20;99.90;;;;;;4918465;29;20476;-84
2022/11/10 07:12:13;;;;;;;438.07;419.07;;;9.20;99.90;;;;;;4917184;29;20453;-84
2022/11/10 07:14:40;;;;;;;429.03;410.07;;;9.10;99.90;;;;;;4917425;29;20545;-85
2022/11/10 07:17:07;;;;;;;435.60;416.60;;;9.10;99.90;;;;;;4917234;29;20461;-84
2022/11/10 07:19:34;;;;;;;438.90;419.90;;;9.00;99.90;;;;;;4918437;29;20481;-84
2022/11/10 07:22:04;;;;;;;436.03;416.47;;;9.00;99.90;;;;;;4918130;29;20529;-84
2022/11/10 07:24:34;;;;;;;427.13;408.23;;;9.00;99.90;;;;;;4918433;29;20464;-85
2022/11/10 07:27:04;;;;;;;424.50;406.67;;;9.00;99.90;;;;;;4918433;29;20461;-84
2022/11/10 07:29:31;;;;;;;452.67;433.10;;;9.00;99.90;;;;;;4917876;29;20513;-84
2022/11/10 07:31:58;;;;;;;451.40;431.40;;;9.00;99.90;;;;;;4917133;29;20464;-84
2022/11/10 07:34:25;;;;;;;484.40;461.97;;;9.00;99.90;;;;;;4917389;29;20469;-84
2022/11/10 07:36:51;;;;;;;489.17;467.23;;;9.00;99.90;;;;;;4917773;29;20465;-84
2022/11/10 07:39:23;;;;;;;493.77;472.00;;;9.00;99.90;;;;;;4917402;29;20485;-85
2022/11/10 07:41:49;;;;;;;517.53;492.00;;;9.10;99.90;;;;;;4917269;29;20476;-86
2022/11/10 07:44:16;;;;;;;481.33;458.73;;;9.20;99.90;;;;;;4917190;29;20469;-84
2022/11/10 07:49:43;;;;;;;485.80;462.10;;;9.40;99.90;;;;;;5014898;23;20568;-86
2022/11/10 07:55:04;;;;;;;414.10;395.50;;;9.50;99.90;;;;;;4992088;28;20446;-83
2022/11/10 07:57:31;;;;;;;406.00;388.10;;;9.70;99.90;;;;;;4991903;28;20568;-84
2022/11/10 07:59:58;;;;;;;372.27;355.20;;;9.70;99.90;;;;;;4993519;28;20502;-84
2022/11/10 08:02:25;;;;;;;355.57;339.83;;;9.90;99.90;;;;;;4994222;28;20458;-84
2022/11/10 08:04:52;;;;;;;331.60;317.50;;;9.90;99.90;;;;;;4994189;28;21010;-84
2022/11/10 08:07:19;;;;;;;308.93;295.80;;;9.90;99.90;;;;;;4994050;28;20498;-83
2022/11/10 08:09:47;;;;;;;286.10;274.17;;;10.00;99.90;;;;;;4992506;28;20454;-84
2022/11/10 08:12:19;;;;;;;273.90;261.80;;;10.10;99.90;;;;;;4993066;28;20458;-83
2022/11/10 08:14:46;;;;;;;229.77;220.30;;;10.20;99.90;;;;;;4992592;28;20461;-84
2022/11/10 08:17:13;;;;;;;203.80;195.30;;;10.20;99.90;;;;;;4992487;28;21007;-83
2022/11/10 08:19:41;;;;;;;180.17;172.37;;;10.30;99.90;;;;;;4993122;28;20474;-83
2022/11/10 08:22:08;;;;;;;145.53;138.97;;;10.40;99.90;;;;;;4992822;28;20489;-83
2022/11/10 08:24:35;;;;;;;130.70;124.67;;;10.60;99.90;;;;;;4994281;28;20468;-84
2022/11/10 08:27:02;;;;;;;106.17;101.77;;;10.60;99.90;;;;;;4996819;28;20465;-84
2022/11/10 08:29:30;;;;;;;95.70;91.00;;;10.60;99.90;;;;;;5000391;28;20929;-82
2022/11/10 08:31:59;;;;;;;104.67;100.27;;;10.70;99.90;;;;;;5000647;28;20518;-84
2022/11/10 08:34:25;;;;;;;92.67;88.17;;;10.80;99.90;;;;;;4997622;28;20454;-84
2022/11/10 08:36:52;;;;;;;83.93;80.27;;;10.80;99.90;;;;;;4997038;28;20533;-83
2022/11/10 08:39:19;;;;;;;70.13;66.10;;;10.90;99.90;;;;;;4999202;28;20450;-85
2022/11/10 08:41:47;;;;;;;54.73;51.53;;;11.00;99.90;;;;;;4997552;28;20485;-85
2022/11/10 08:44:13;;;;;;;54.30;50.03;;;11.10;99.90;;;;;;4998563;28;20458;-85
2022/11/10 08:46:43;;;;;;;49.17;45.80;;;11.20;99.90;;;;;;4997178;28;20480;-85
2022/11/10 08:49:09;;;;;;;40.30;37.03;;;11.20;99.90;;;;;;4995918;28;20486;-85
2022/11/10 08:51:36;;;;;;;38.27;35.43;;;11.40;99.90;;;;;;4996815;28;20476;-84
2022/11/10 08:54:03;;;;;;;38.77;35.83;;;11.40;99.90;;;;;;4997145;28;20461;-84
2022/11/10 08:56:58;;;;;;;31.97;29.60;;;11.50;99.90;;;;;;4997116;28;20469;-84
2022/11/10 08:59:25;;;;;;;26.67;24.83;;;11.60;99.90;;;;;;4991870;28;20454;-84
2022/11/10 09:01:57;;;;;;;28.23;26.33;;;11.70;99.90;;;;;;4997687;28;20465;-84
2022/11/10 09:04:24;;;;;;;25.63;23.43;;;11.70;99.90;;;;;;4997319;28;20454;-84
2022/11/10 09:06:51;;;;;;;24.53;21.00;;;11.80;99.90;;;;;;4997741;28;20832;-86
2022/11/10 09:09:18;;;;;;;19.17;17.30;;;11.90;99.90;;;;;;4999154;28;20458;-85
2022/11/10 09:12:13;;;;;;;16.53;14.07;;;11.90;99.90;;;;;;4999328;28;20900;-85
2022/11/10 09:14:40;;;;;;;13.87;12.40;;;12.00;99.90;;;;;;4999106;28;20462;-86
2022/11/10 09:17:12;;;;;;;16.40;10.67;;;12.10;99.90;;;;;;4999236;28;20458;-84
2022/11/10 09:19:38;;;;;;;17.37;8.87;;;12.20;99.90;;;;;;5002846;28;20540;-85
2022/11/10 09:22:06;;;;;;;11.80;9.00;;;12.40;99.90;;;;;;4999657;28;20556;-84
2022/11/10 09:24:33;;;;;;;17.23;6.50;;;12.40;99.90;;;;;;4996428;28;20465;-80
2022/11/10 09:26:59;;;;;;;10.50;8.90;;;12.50;99.90;;;;;;4997443;28;20516;-85
2022/11/10 09:29:26;;;;;;;18.50;6.23;;;12.50;99.90;;;;;;4997536;28;20465;-85
2022/11/10 09:31:53;;;;;;;14.37;6.50;;;12.60;99.90;;;;;;4997157;28;20481;-85
2022/11/10 09:34:21;;;;;;;13.20;7.10;;;12.70;99.90;;;;;;4997595;28;20458;-85
2022/11/10 09:37:21;;;;;;;19.50;5.90;;;12.70;99.90;;;;;;4996631;28;20462;-80
2022/11/10 09:43:17;;;;;;;14.60;4.70;;;12.90;99.90;;;;;;4967135;28;20474;-85
2022/11/10 09:45:49;;;;;;;15.57;4.57;;;13.10;99.90;;;;;;5000686;28;20445;-84
2022/11/10 09:48:19;;;;;;;12.67;4.53;;;13.20;99.90;;;;;;5009479;28;20492;-84
2022/11/10 09:50:52;;;;;;;20.43;4.10;;;13.20;99.90;;;;;;5011042;28;20446;-85
2022/11/10 09:53:23;;;;;;;11.63;3.37;;;13.30;99.00;;;;;;5010117;28;20493;-86
2022/11/10 09:55:53;;;;;;;14.43;3.00;;;13.50;99.10;;;;;;5008571;28;20485;-86
2022/11/10 10:01:36;;;;;;;12.97;2.90;;;14.00;97.00;;;;;;4986638;28;20478;-86
2022/11/10 10:04:37;;;;;;;12.63;2.40;;;14.40;96.40;;;;;;4999758;28;20456;-86
2022/11/10 10:07:10;;;;;;;9.07;2.30;;;15.00;94.30;;;;;;5007593;28;20453;-87
2022/11/10 10:09:45;;;;;;;14.17;2.70;;;15.50;93.20;;;;;;5007511;28;20482;-86
2022/11/10 10:12:24;;;;;;;18.60;2.87;;;15.90;92.60;;;;;;5006728;28;20451;-86
2022/11/10 10:15:29;;;;;;;9.70;2.00;;;16.10;90.70;;;;;;5006625;28;20478;-87
2022/11/10 10:18:21;;;;;;;17.13;3.17;;;16.40;90.70;;;;;;4962556;28;20473;-86
2022/11/10 10:21:40;;;;;;;10.17;2.13;;;16.70;89.50;;;;;;5008555;28;20481;-86
2022/11/10 10:24:13;;;;;;;11.60;2.50;;;17.00;87.30;;;;;;4963397;29;20449;-86
2022/11/10 10:26:46;;;;;;;11.90;2.13;;;16.90;83.20;;;;;;5004081;28;20449;-86
2022/11/10 10:29:19;;;;;;;8.97;2.50;;;17.10;83.40;;;;;;5005844;28;20471;-85
2022/11/10 10:31:48;;;;;;;14.13;2.30;;;16.90;83.20;;;;;;5004509;28;20504;-86
2022/11/10 10:34:48;;;;;;;15.67;2.77;;;16.80;81.80;;;;;;5002874;28;20459;-87
2022/11/10 10:37:23;;;;;;;18.37;3.70;;;16.70;83.30;;;;;;5005653;28;20535;-86
2022/11/10 10:39:54;;;;;;;9.90;2.70;;;16.60;81.70;;;;;;5010764;28;20452;-85
2022/11/10 10:42:30;;;;;;;9.97;2.50;;;16.70;82.60;;;;;;5011157;28;20485;-86
2022/11/10 10:45:21;;;;;;;12.97;2.40;;;16.70;81.00;;;;;;5010175;28;20448;-84
2022/11/10 10:48:22;;;;;;;11.00;2.23;;;16.60;81.40;;;;;;5010349;28;20498;-85
2022/11/10 10:50:49;;;;;;;13.00;2.60;;;17.10;81.50;;;;;;5007260;28;20453;-86
2022/11/10 10:53:57;;;;;;;15.27;2.40;;;17.20;79.10;;;;;;5008362;28;20467;-86
2022/11/10 10:56:28;;;;;;;9.60;2.33;;;17.30;78.10;;;;;;5008101;28;20548;-86
2022/11/10 10:58:57;;;;;;;9.77;2.57;;;17.10;78.20;;;;;;5008439;28;20469;-86
2022/11/10 11:01:29;;;;;;;8.87;2.50;;;16.80;79.10;;;;;;5008216;28;20504;-85
2022/11/10 11:03:56;;;;;;;13.17;2.50;;;16.50;80.10;;;;;;5008142;28;20926;-86
2022/11/10 11:06:26;;;;;;;8.73;2.40;;;16.20;81.20;;;;;;5008389;28;20466;-84
2022/11/10 11:08:58;;;;;;;14.00;2.37;;;15.90;82.30;;;;;;4997188;28;20473;-85
2022/11/10 11:11:28;;;;;;;8.57;2.30;;;15.80;82.20;;;;;;4996931;28;20450;-85
2022/11/10 11:14:13;;;;;;;10.43;2.27;;;15.70;82.70;;;;;;5006645;28;20518;-86
2022/11/10 11:16:51;;;;;;;18.33;3.70;;;15.60;82.30;;;;;;5005548;28;21112;-85
2022/11/10 11:19:20;;;;;;;13.23;2.10;;;15.80;82.20;;;;;;5002478;28;20455;-85
2022/11/10 11:22:09;;;;;;;8.83;2.13;;;16.40;80.30;;;;;;5001780;28;20479;-86
2022/11/10 11:24:46;;;;;;;9.77;2.00;;;17.00;76.90;;;;;;5003529;28;20455;-85
2022/11/10 11:27:20;;;;;;;8.33;2.07;;;17.60;73.80;;;;;;5007182;28;20477;-85
2022/11/10 11:30:04;;;;;;;8.00;2.10;;;17.60;70.60;;;;;;5003954;28;20717;-85
2022/11/10 11:32:53;;;;;;;12.10;2.60;;;18.00;69.10;;;;;;5003686;28;20482;-85
2022/11/10 11:35:30;;;;;;;9.60;2.47;;;18.30;68.60;;;;;;5004441;28;20461;-85
2022/11/10 11:38:08;;;;;;;9.93;1.97;;;18.50;67.10;;;;;;5001687;28;20480;-84
2022/11/10 11:41:06;;;;;;;;;;;;;;;;;;;;;
2022/11/10 11:44:07;;;;;;;14.43;1.63;;;18.20;65.20;;;;;;5001561;28;20461;-85
2022/11/10 11:49:50;;;;;;;7.43;1.80;;;19.00;65.50;;;;;;4984491;28;20496;-85
2022/11/10 11:52:25;;;;;;;7.23;1.73;;;19.40;61.50;;;;;;5002899;28;20457;-84
2022/11/10 11:55:03;;;;;;;12.50;2.03;;;19.70;61.60;;;;;;5004510;28;20457;-84
2022/11/10 11:57:40;;;;;;;11.93;2.07;;;19.60;57.70;;;;;;5003964;28;20484;-84
2022/11/10 12:00:13;;;;;;;10.37;1.97;;;19.60;55.90;;;;;;5001469;28;20870;-86
2022/11/10 12:06:41;;;;;;;6.87;1.67;;;19.00;57.90;;;;;;4989967;28;20466;-84
2022/11/10 12:09:52;;;;;;;8.60;1.60;;;19.20;58.10;;;;;;5002336;28;20539;-85
2022/11/10 12:12:52;;;;;;;10.90;1.97;;;18.90;55.90;;;;;;4997621;28;20928;-84
2022/11/10 12:15:30;;;;;;;6.80;1.33;;;18.80;54.20;;;;;;4977688;28;20513;-86
2022/11/10 12:18:12;;;;;;;6.87;1.93;;;18.70;56.30;;;;;;5001172;28;20563;-85
2022/11/10 12:20:50;;;;;;;8.77;2.10;;;18.90;57.30;;;;;;4998465;28;20447;-86
2022/11/10 12:23:22;;;;;;;12.37;1.77;;;18.50;57.30;;;;;;5003392;28;20958;-86
2022/11/10 12:25:58;;;;;;;9.47;2.03;;;19.10;57.60;;;;;;4993614;28;20456;-86
2022/11/10 12:28:31;;;;;;;8.40;2.90;;;19.40;56.10;;;;;;4997009;28;20993;-86
2022/11/10 12:31:03;;;;;;;10.47;1.97;;;19.40;54.30;;;;;;4998295;28;20489;-85
2022/11/10 12:33:38;;;;;;;10.37;2.00;;;19.30;54.20;;;;;;5000879;28;20459;-85
2022/11/10 12:36:07;;;;;;;8.37;1.90;;;19.30;52.60;;;;;;4994735;28;20467;-86
2022/11/10 12:38:44;;;;;;;9.10;1.70;;;19.30;51.10;;;;;;4998064;28;20496;-86
2022/11/10 12:41:16;;;;;;;10.40;1.93;;;19.60;52.80;;;;;;4999887;28;20453;-86
2022/11/10 12:44:05;;;;;;;7.93;1.50;;;19.60;52.80;;;;;;5000024;28;20525;-86
2022/11/10 12:46:33;;;;;;;9.13;1.50;;;19.80;51.60;;;;;;4980032;28;20459;-86
2022/11/10 12:49:10;;;;;;;7.00;1.30;;;19.20;50.70;;;;;;4981198;28;20496;-86
2022/11/10 12:51:49;;;;;;;7.50;1.77;;;18.80;52.10;;;;;;4995041;28;20488;-84
2022/11/10 12:54:17;;;;;;;10.40;1.50;;;18.70;52.10;;;;;;5000139;28;20456;-85
2022/11/10 12:56:50;;;;;;;9.73;1.70;;;18.80;52.10;;;;;;4999140;28;20531;-86
2022/11/10 12:59:29;;;;;;;10.30;1.53;;;18.40;51.70;;;;;;4996415;28;21096;-86
2022/11/10 13:02:02;;;;;;;8.00;1.73;;;18.40;51.70;;;;;;4997220;28;20452;-86
2022/11/10 13:04:30;;;;;;;7.87;1.80;;;18.50;53.80;;;;;;4997308;28;20449;-85
2022/11/10 13:06:59;;;;;;;6.50;1.40;;;18.30;56.00;;;;;;4997411;28;20467;-84
2022/11/10 13:09:29;;;;;;;10.53;2.40;;;17.60;58.40;;;;;;4998430;28;20457;-84
2022/11/10 13:12:21;;;;;;;6.27;1.63;;;17.00;59.20;;;;;;4995855;28;21008;-85
2022/11/10 13:14:48;;;;;;;4.83;1.20;;;16.50;62.70;;;;;;4979664;28;20464;-84
2022/11/10 13:17:55;;;;;;;7.00;1.70;;;16.30;64.60;;;;;;4998249;28;20477;-85
2022/11/10 13:20:49;;;;;;;6.73;1.50;;;16.10;66.50;;;;;;5000251;28;20562;-85
2022/11/10 13:23:27;;;;;;;5.80;1.37;;;15.80;66.30;;;;;;5000106;28;21122;-84
2022/11/10 13:26:00;;;;;;;12.57;2.23;;;15.60;66.10;;;;;;4993343;28;20453;-84
2022/11/10 13:29:01;;;;;;;14.57;2.67;;;15.60;68.10;;;;;;5000258;28;20858;-85
2022/11/10 13:31:56;;;;;;;8.83;1.40;;;15.40;66.80;;;;;;5000075;28;20452;-84
2022/11/10 13:34:33;;;;;;;9.33;2.37;;;15.30;66.40;;;;;;4941279;28;20455;-84
2022/11/10 13:37:00;;;;;;;10.10;3.00;;;15.20;68.60;;;;;;4984478;28;20456;-85
2022/11/10 13:39:30;;;;;;;13.53;2.10;;;15.10;69.40;;;;;;4983140;28;20451;-83
2022/11/10 13:42:02;;;;;;;5.90;1.70;;;15.10;70.60;;;;;;4978052;28;20477;-83